85V weather

Ganado Airport
Ganado, Arizona, United States

Public forecast

Using degrees Fahrenheit for public forecast. Weather courtesy of forecast.io.

Closest aviation weather report (METAR) to Ganado Airport

Closest report is Window Rock Airport, 21.8 nm (40.4 km) E. Retrieved 2020/02/18 02:53 UTC (26 minutes ago):

KRQE 180253Z AUTO 00000KT 10SM FEW095 06/M04 A3000 RMK AO2 SLP130 T00611044 51013

Closest aviation forecast (TAF) to Ganado Airport

Closest forecast is Gallup Municipal Airport, 37.0 nm (68.5 km) ESE. Retrieved 2020-02-18 00:28 UTC (3 hours ago):

TAF KGUP 172326Z 1800/1824 26011KT P6SM BKN100 FM180300 VRB03KT P6SM BKN200 FM182100 28006KT P6SM OVC150